N273KA MKJS-KIAH
Flight info
| Callsign | N273KA |
|---|---|
| Flight time | N/A |
| Altitude | 40000 |
| Route | PETSI DCT ATUVI UL674 KEHLI A766 KELPP LINKK1 |
| Aircraft | FA50/M-SDFGHIM1RWXY/HB2 |
Departure
| Time | N/A |
|---|---|
| Airport | Sangster International Airport (MKJS) |
Arrival
| Time | 2026-05-03 20:17 |
|---|---|
| Airport | George Bush Intercontinental Airport (KIAH) |
| Time | Latitude | Longitude | Altitude | Speed | Heading |
|---|---|---|---|---|---|
| 2026-05-03 20:15 | 29.99337 | -95.40137 | 968 ft | 113 kts | 90° |
| 2026-05-03 20:15 | 29.99341 | -95.39243 | 811 ft | 114 kts | 90° |
| 2026-05-03 20:15 | 29.99341 | -95.38339 | 676 ft | 112 kts | 91° |
| 2026-05-03 20:15 | 29.99330 | -95.37423 | 527 ft | 115 kts | 91° |
| 2026-05-03 20:16 | 29.99333 | -95.36510 | 345 ft | 111 kts | 90° |
| 2026-05-03 20:16 | 29.99344 | -95.35641 | 167 ft | 106 kts | 90° |
| 2026-05-03 20:16 | 29.99342 | -95.34866 | 99 ft | 84 kts | 89° |
| 2026-05-03 20:16 | 29.99341 | -95.34327 | 99 ft | 50 kts | 90° |
| 2026-05-03 20:17 | 29.99325 | -95.34020 | 99 ft | 32 kts | 104° |
| 2026-05-03 20:17 | 29.99253 | -95.33831 | 99 ft | 18 kts | 120° |
| 2026-05-03 20:17 | 29.99183 | -95.33810 | 99 ft | 12 kts | 250° |
| 2026-05-03 20:17 | 29.99177 | -95.33923 | 99 ft | 15 kts | 270° |
| 2026-05-03 20:18 | 29.99177 | -95.34055 | 99 ft | 17 kts | 270° |
| 2026-05-03 20:18 | 29.99177 | -95.34206 | 99 ft | 19 kts | 270° |
| 2026-05-03 20:18 | 29.99176 | -95.34375 | 99 ft | 22 kts | 270° |
| 2026-05-03 20:18 | 29.99176 | -95.34560 | 99 ft | 24 kts | 270° |
| 2026-05-03 20:19 | 29.99178 | -95.34759 | 99 ft | 25 kts | 270° |
| 2026-05-03 20:19 | 29.99176 | -95.34946 | 99 ft | 20 kts | 270° |
| 2026-05-03 20:19 | 29.99175 | -95.35096 | 99 ft | 18 kts | 269° |
| 2026-05-03 20:19 | 29.99178 | -95.35225 | 99 ft | 13 kts | 271° |
| 2026-05-03 20:20 | 29.99178 | -95.35352 | 99 ft | 17 kts | 270° |
| 2026-05-03 20:20 | 29.99160 | -95.35477 | 99 ft | 14 kts | 211° |
| 2026-05-03 20:20 | 29.99051 | -95.35484 | 99 ft | 18 kts | 178° |
| 2026-05-03 20:20 | 29.98908 | -95.35484 | 99 ft | 21 kts | 179° |
| 2026-05-03 20:21 | 29.98777 | -95.35446 | 98 ft | 20 kts | 151° |
| 2026-05-03 20:21 | 29.98668 | -95.35410 | 98 ft | 15 kts | 221° |
| 2026-05-03 20:21 | 29.98583 | -95.35446 | 98 ft | 17 kts | 152° |
| 2026-05-03 20:21 | 29.98471 | -95.35376 | 98 ft | 19 kts | 153° |
| 2026-05-03 20:22 | 29.98341 | -95.35297 | 98 ft | 22 kts | 153° |
| 2026-05-03 20:22 | 29.98195 | -95.35208 | 97 ft | 24 kts | 152° |
| 2026-05-03 20:22 | 29.98038 | -95.35113 | 97 ft | 26 kts | 152° |
| 2026-05-03 20:22 | 29.97877 | -95.35016 | 97 ft | 27 kts | 152° |
| 2026-05-03 20:23 | 29.97707 | -95.34911 | 96 ft | 25 kts | 153° |
| 2026-05-03 20:23 | 29.97677 | -95.34804 | 96 ft | 15 kts | 68° |
| 2026-05-03 20:23 | 29.97631 | -95.34734 | 96 ft | 15 kts | 154° |
| 2026-05-03 20:23 | 29.97510 | -95.34660 | 96 ft | 23 kts | 152° |
| 2026-05-03 20:24 | 29.97348 | -95.34560 | 96 ft | 26 kts | 152° |
| 2026-05-03 20:24 | 29.97219 | -95.34481 | 95 ft | 11 kts | 146° |
| 2026-05-03 20:24 | 29.97238 | -95.34406 | 95 ft | 9 kts | 65° |
| 2026-05-03 20:24 | 29.97260 | -95.34354 | 96 ft | 6 kts | 71° |
| 2026-05-03 20:25 | 29.97218 | -95.34302 | 95 ft | 12 kts | 153° |
| 2026-05-03 20:25 | 29.97168 | -95.34242 | 95 ft | 9 kts | 61° |
| 2026-05-03 20:25 | 29.97198 | -95.34206 | 95 ft | 5 kts | 334° |
| 2026-05-03 20:25 | 29.97203 | -95.34209 | 95 ft | 0 kts | 331° |